createdAt,value
2022-11-10T00:01:08.083Z,5.10
2022-11-10T00:04:31.490Z,5.10
2022-11-10T00:06:58.498Z,5.10
2022-11-10T00:09:25.600Z,5.20
2022-11-10T00:11:52.550Z,5.20
2022-11-10T00:14:37.944Z,5.20
2022-11-10T00:17:04.951Z,5.20
2022-11-10T00:19:32.978Z,5.30
2022-11-10T00:22:01.364Z,5.30
2022-11-10T00:24:29.394Z,5.30
2022-11-10T00:26:56.567Z,5.30
2022-11-10T00:29:23.821Z,5.30
2022-11-10T00:31:50.906Z,5.30
2022-11-10T00:34:18.156Z,5.30
2022-11-10T00:36:45.334Z,5.30
2022-11-10T00:39:12.776Z,5.30
2022-11-10T00:41:39.751Z,5.30
2022-11-10T00:44:06.722Z,5.30
2022-11-10T00:46:33.722Z,5.30
2022-11-10T00:49:00.768Z,5.30
2022-11-10T00:51:29.378Z,5.30
2022-11-10T00:53:56.404Z,5.30
2022-11-10T00:56:23.927Z,5.30
2022-11-10T00:58:51.091Z,5.30
2022-11-10T01:01:20.080Z,5.30
2022-11-10T01:03:47.387Z,5.30
2022-11-10T01:06:16.709Z,5.30
2022-11-10T01:08:43.951Z,5.30
2022-11-10T01:11:15.394Z,5.30
2022-11-10T01:13:43.371Z,5.30
2022-11-10T01:16:16.577Z,5.30
2022-11-10T01:18:43.851Z,5.20
2022-11-10T01:21:10.930Z,5.20
2022-11-10T01:23:37.950Z,5.20
2022-11-10T01:26:06.666Z,5.20
2022-11-10T01:28:35.170Z,5.20
2022-11-10T01:31:11.190Z,5.20
2022-11-10T01:33:38.549Z,5.20
2022-11-10T01:36:06.810Z,5.20
2022-11-10T01:38:36.276Z,5.20
2022-11-10T01:41:05.463Z,5.10
2022-11-10T01:43:33.207Z,5.10
2022-11-10T01:46:07.317Z,5.10
2022-11-10T01:49:06.396Z,5.00
2022-11-10T01:51:41.949Z,5.00
2022-11-10T01:54:13.422Z,4.90
2022-11-10T01:56:45.922Z,4.90
2022-11-10T01:59:18.478Z,4.80
2022-11-10T02:01:48.804Z,4.70
2022-11-10T02:04:19.408Z,4.70
2022-11-10T02:06:48.669Z,4.60
2022-11-10T02:09:16.836Z,4.50
2022-11-10T02:11:45.390Z,4.50
2022-11-10T02:14:13.266Z,4.40
2022-11-10T02:16:41.023Z,4.30
2022-11-10T02:19:20.618Z,4.30
2022-11-10T02:21:47.661Z,4.30
2022-11-10T02:24:15.088Z,4.20
2022-11-10T02:26:53.683Z,4.20
2022-11-10T02:29:21.067Z,4.20
2022-11-10T02:31:48.010Z,4.10
2022-11-10T02:34:15.566Z,4.10
2022-11-10T02:36:42.562Z,4.10
2022-11-10T02:39:09.645Z,4.10
2022-11-10T02:41:36.684Z,4.00
2022-11-10T02:44:04.907Z,4.00
2022-11-10T02:46:31.864Z,3.90
2022-11-10T02:48:58.893Z,3.90
2022-11-10T02:51:25.881Z,3.90
2022-11-10T02:53:52.843Z,3.90
2022-11-10T02:56:19.911Z,4.00
2022-11-10T02:58:47.018Z,4.00
2022-11-10T03:01:14.025Z,4.00
2022-11-10T03:03:41.058Z,4.00
2022-11-10T03:06:08.069Z,4.00
2022-11-10T03:08:35.132Z,4.00
2022-11-10T03:11:02.204Z,4.00
2022-11-10T03:13:45.401Z,4.10
2022-11-10T03:16:18.185Z,4.10
2022-11-10T03:18:45.232Z,4.10
2022-11-10T03:21:12.182Z,4.10
2022-11-10T03:23:39.116Z,4.00
2022-11-10T03:26:07.403Z,4.00
2022-11-10T03:28:35.020Z,3.90
2022-11-10T03:31:02.036Z,3.90
2022-11-10T03:33:29.084Z,3.80
2022-11-10T03:35:56.003Z,3.80
2022-11-10T03:38:23.004Z,3.70
2022-11-10T03:43:40.060Z,3.70
2022-11-10T03:46:07.129Z,3.70
2022-11-10T03:48:34.339Z,3.80
2022-11-10T03:51:01.292Z,3.90
2022-11-10T03:53:28.276Z,4.00
2022-11-10T03:55:55.204Z,4.10
2022-11-10T03:58:22.138Z,4.10
2022-11-10T04:00:49.153Z,4.10
2022-11-10T04:03:16.163Z,4.10
2022-11-10T04:06:01.415Z,4.10
2022-11-10T04:08:47.098Z,4.00
2022-11-10T04:11:33.999Z,3.90
2022-11-10T04:14:19.459Z,3.70
2022-11-10T04:16:46.575Z,3.60
2022-11-10T04:19:13.508Z,3.70
2022-11-10T04:21:40.533Z,3.80
2022-11-10T04:24:08.611Z,4.00
2022-11-10T04:26:38.878Z,4.10
2022-11-10T04:29:08.779Z,4.20
2022-11-10T04:31:38.192Z,4.20
2022-11-10T04:34:06.159Z,4.00
2022-11-10T04:36:34.976Z,3.90
2022-11-10T04:39:02.496Z,3.80
2022-11-10T04:41:32.638Z,3.80
2022-11-10T04:44:01.102Z,3.80
2022-11-10T04:46:37.455Z,3.80
2022-11-10T04:49:06.271Z,3.80
2022-11-10T04:51:36.659Z,3.90
2022-11-10T04:54:04.853Z,3.90
2022-11-10T04:56:31.872Z,4.00
2022-11-10T04:58:58.821Z,4.10
2022-11-10T05:01:27.568Z,4.10
2022-11-10T05:03:55.588Z,4.20
2022-11-10T05:06:23.201Z,4.30
2022-11-10T05:08:50.626Z,4.40
2022-11-10T05:11:17.657Z,4.30
2022-11-10T05:13:45.506Z,4.20
2022-11-10T05:16:13.762Z,4.20
2022-11-10T05:18:41.671Z,4.30
2022-11-10T05:21:09.204Z,4.30
2022-11-10T05:23:39.113Z,4.40
2022-11-10T05:26:15.114Z,4.30
2022-11-10T05:28:43.786Z,4.40
2022-11-10T05:31:11.907Z,4.40
2022-11-10T05:33:39.358Z,4.60
2022-11-10T05:36:07.684Z,4.60
2022-11-10T05:38:38.864Z,4.80
2022-11-10T05:41:09.174Z,4.80
2022-11-10T05:43:36.151Z,4.80
2022-11-10T05:46:03.245Z,4.70
2022-11-10T05:48:30.239Z,4.70
2022-11-10T05:50:57.365Z,4.70
2022-11-10T05:53:24.743Z,4.70
2022-11-10T05:55:52.004Z,4.70
2022-11-10T05:58:18.958Z,4.70
2022-11-10T06:00:45.957Z,4.70
2022-11-10T06:03:18.114Z,4.80
2022-11-10T06:05:45.793Z,4.70
2022-11-10T06:08:12.953Z,4.80
2022-11-10T06:10:40.102Z,4.90
2022-11-10T06:13:07.358Z,5.00
2022-11-10T06:15:34.676Z,5.30
2022-11-10T06:18:01.925Z,5.20
2022-11-10T06:20:29.478Z,5.30
2022-11-10T06:23:04.021Z,5.50
2022-11-10T06:25:33.169Z,5.60
2022-11-10T06:28:00.582Z,5.70
2022-11-10T06:30:28.662Z,5.80
2022-11-10T06:32:56.086Z,5.90
2022-11-10T06:35:24.377Z,5.90
2022-11-10T06:37:59.323Z,6.00
2022-11-10T06:40:26.318Z,6.20
2022-11-10T06:42:53.330Z,6.30
2022-11-10T06:45:20.379Z,6.40
2022-11-10T06:47:47.348Z,6.40
2022-11-10T06:50:14.828Z,6.50
2022-11-10T06:52:41.742Z,6.60
2022-11-10T06:55:09.160Z,6.70
2022-11-10T06:57:40.140Z,6.80
2022-11-10T07:00:07.828Z,6.70
2022-11-10T07:02:34.798Z,6.70
2022-11-10T07:05:01.776Z,6.60
2022-11-10T07:07:28.788Z,6.70
2022-11-10T07:09:55.729Z,6.60
2022-11-10T07:12:22.666Z,6.60
2022-11-10T07:14:49.574Z,6.60
2022-11-10T07:17:16.541Z,6.90
2022-11-10T07:19:43.636Z,7.30
2022-11-10T07:22:11.388Z,7.90
2022-11-10T07:24:38.447Z,8.40
2022-11-10T07:27:05.420Z,8.80
2022-11-10T07:29:32.369Z,9.10
2022-11-10T07:31:59.753Z,9.40
2022-11-10T07:34:26.816Z,9.80
2022-11-10T07:36:53.722Z,10.10
2022-11-10T07:39:20.677Z,10.10
2022-11-10T07:41:52.148Z,10.30
2022-11-10T07:44:19.483Z,10.60
2022-11-10T07:46:47.255Z,11.00
2022-11-10T07:49:14.229Z,11.30
2022-11-10T07:51:42.944Z,11.50
2022-11-10T07:54:10.025Z,11.60
2022-11-10T07:56:37.044Z,11.70
2022-11-10T07:59:03.994Z,11.70
2022-11-10T08:01:31.188Z,11.90
2022-11-10T08:03:58.150Z,12.10
2022-11-10T08:06:25.132Z,12.50
2022-11-10T08:08:52.176Z,12.70
2022-11-10T08:11:19.124Z,13.20
2022-11-10T08:13:46.054Z,12.80
2022-11-10T08:16:12.988Z,12.80
2022-11-10T08:18:39.936Z,12.90
2022-11-10T08:21:06.946Z,13.30
2022-11-10T08:23:34.394Z,13.90
2022-11-10T08:26:01.941Z,14.10
2022-11-10T08:28:29.454Z,14.30
2022-11-10T08:30:57.192Z,14.40
2022-11-10T08:33:26.566Z,15.00
2022-11-10T08:35:53.673Z,14.90
2022-11-10T08:38:22.587Z,14.70
2022-11-10T08:40:49.865Z,15.20
2022-11-10T08:43:18.471Z,15.20
2022-11-10T08:45:46.003Z,15.60
2022-11-10T08:48:18.616Z,15.50
2022-11-10T08:50:46.549Z,15.90
2022-11-10T08:53:15.797Z,15.70
2022-11-10T08:55:43.578Z,15.80
2022-11-10T08:58:16.915Z,15.90
2022-11-10T09:00:44.079Z,15.60
2022-11-10T09:03:13.774Z,16.30
2022-11-10T09:05:41.767Z,16.30
2022-11-10T09:08:09.508Z,16.80
2022-11-10T09:10:39.331Z,17.30
2022-11-10T09:13:07.314Z,18.20
2022-11-10T09:15:35.753Z,18.60
2022-11-10T09:18:05.070Z,19.00
2022-11-10T09:20:34.684Z,19.10
2022-11-10T09:23:13.813Z,19.10
2022-11-10T09:25:41.305Z,19.30
2022-11-10T09:28:15.073Z,19.50
2022-11-10T09:30:45.342Z,19.20
2022-11-10T09:33:12.570Z,19.80
2022-11-10T09:35:39.781Z,19.20
2022-11-10T09:38:06.817Z,19.30
2022-11-10T09:41:03.186Z,19.10
2022-11-10T09:44:08.505Z,18.20
2022-11-10T09:46:46.489Z,17.50
2022-11-10T09:49:25.747Z,17.20
2022-11-10T09:51:54.162Z,17.80
2022-11-10T09:54:23.790Z,17.50
2022-11-10T09:56:53.672Z,17.80
2022-11-10T09:59:27.332Z,18.20
2022-11-10T10:02:03.397Z,18.40
2022-11-10T10:05:14.619Z,18.80
2022-11-10T10:07:44.114Z,19.10
2022-11-10T10:10:17.527Z,18.90
2022-11-10T10:13:22.090Z,19.40
2022-11-10T10:16:27.999Z,19.00
2022-11-10T10:19:09.670Z,18.30
2022-11-10T10:22:01.489Z,18.90
2022-11-10T10:24:30.285Z,19.50
2022-11-10T10:27:00.261Z,19.20
2022-11-10T10:29:37.283Z,18.10
2022-11-10T10:32:10.053Z,17.50
2022-11-10T10:34:37.114Z,17.10
2022-11-10T10:37:04.085Z,16.60
2022-11-10T10:39:54.356Z,16.30
2022-11-10T10:42:34.464Z,15.80
2022-11-10T10:45:24.386Z,15.80
2022-11-10T10:47:54.206Z,16.90
2022-11-10T10:50:32.316Z,17.70
2022-11-10T10:53:12.291Z,18.00
2022-11-10T10:55:45.622Z,18.00
2022-11-10T10:58:31.149Z,18.00
2022-11-10T11:01:01.234Z,17.80
2022-11-10T11:03:42.974Z,18.20
2022-11-10T11:06:15.789Z,18.00
2022-11-10T11:09:00.208Z,18.60
2022-11-10T11:11:51.921Z,19.10
2022-11-10T11:14:27.215Z,18.90
2022-11-10T11:17:01.205Z,17.80
2022-11-10T11:19:34.277Z,17.70
2022-11-10T11:22:25.991Z,16.90
2022-11-10T11:25:06.789Z,17.20
2022-11-10T11:27:51.549Z,16.00
2022-11-10T11:30:23.678Z,16.00
2022-11-10T11:33:06.000Z,16.50
2022-11-10T11:36:05.570Z,17.30
2022-11-10T11:38:49.145Z,16.70
2022-11-10T11:41:45.411Z,16.30
2022-11-10T11:44:15.140Z,16.70
2022-11-10T11:47:13.055Z,16.10
2022-11-10T11:50:22.661Z,16.00
2022-11-10T11:53:47.999Z,15.80
2022-11-10T11:56:38.550Z,16.30
2022-11-10T11:59:50.431Z,17.00
2022-11-10T12:02:48.745Z,15.60
2022-11-10T12:05:43.066Z,14.30
2022-11-10T12:08:22.247Z,13.80
2022-11-10T12:10:49.365Z,12.70
2022-11-10T12:13:28.059Z,12.10
2022-11-10T12:15:58.334Z,11.20
2022-11-10T12:18:37.794Z,11.10
2022-11-10T12:21:39.061Z,10.90
2022-11-10T12:24:34.225Z,11.30
2022-11-10T12:27:22.743Z,12.10
2022-11-10T12:30:02.635Z,12.70
2022-11-10T12:32:37.516Z,13.70
2022-11-10T12:35:16.058Z,14.40
2022-11-10T12:37:59.457Z,14.30
2022-11-10T12:40:31.298Z,13.60
2022-11-10T12:43:03.388Z,12.20
2022-11-10T12:45:39.686Z,11.40
2022-11-10T12:48:09.418Z,10.90
2022-11-10T12:51:02.871Z,10.40
2022-11-10T12:53:32.817Z,10.30
2022-11-10T12:56:37.448Z,10.70
2022-11-10T12:59:37.686Z,12.10
2022-11-10T13:02:19.100Z,12.80
2022-11-10T13:04:46.039Z,12.90
2022-11-10T13:07:13.900Z,12.80
2022-11-10T13:09:43.832Z,12.70
2022-11-10T13:12:10.679Z,12.60
2022-11-10T13:14:38.622Z,11.90
2022-11-10T13:17:05.864Z,11.40
2022-11-10T13:19:33.838Z,10.90
2022-11-10T13:22:10.113Z,10.50
2022-11-10T13:24:42.571Z,10.30
2022-11-10T13:27:37.563Z,9.90
2022-11-10T13:30:07.723Z,9.60
2022-11-10T13:32:35.481Z,9.50
2022-11-10T13:35:30.511Z,9.40
2022-11-10T13:37:57.844Z,9.20
2022-11-10T13:40:24.890Z,9.20
2022-11-10T13:42:57.682Z,9.10
2022-11-10T13:45:39.982Z,9.00
2022-11-10T13:48:13.007Z,8.80
2022-11-10T13:50:49.147Z,8.60
2022-11-10T13:53:30.797Z,8.50
2022-11-10T13:56:30.804Z,8.40
2022-11-10T13:58:58.279Z,8.40
2022-11-10T14:01:30.682Z,8.20
2022-11-10T14:04:05.020Z,8.00
2022-11-10T14:06:42.278Z,7.90
2022-11-10T14:09:27.656Z,7.70
2022-11-10T14:12:00.565Z,7.60
2022-11-10T14:14:49.069Z,7.40
2022-11-10T14:17:35.684Z,7.20
2022-11-10T14:20:04.059Z,7.10
2022-11-10T14:22:40.926Z,7.10
2022-11-10T14:25:30.537Z,7.00
2022-11-10T14:27:58.527Z,6.80
2022-11-10T14:30:33.483Z,6.70
2022-11-10T14:33:09.440Z,6.60
2022-11-10T14:35:54.726Z,6.50
2022-11-10T14:38:27.496Z,6.30
2022-11-10T14:40:57.236Z,6.30
2022-11-10T14:43:31.485Z,6.20
2022-11-10T14:45:59.538Z,6.10
2022-11-10T14:48:35.599Z,6.10
2022-11-10T14:51:18.610Z,6.00
2022-11-10T14:53:58.629Z,6.00
2022-11-10T14:56:30.279Z,6.00
2022-11-10T14:58:59.312Z,6.00
2022-11-10T15:01:35.122Z,5.90
2022-11-10T15:04:05.603Z,5.80
2022-11-10T15:06:33.165Z,5.80
2022-11-10T15:09:11.981Z,5.80
2022-11-10T15:11:41.478Z,5.80
2022-11-10T15:14:33.680Z,5.80
2022-11-10T15:17:02.342Z,5.80
2022-11-10T15:19:32.415Z,5.80
2022-11-10T15:22:21.288Z,5.70
2022-11-10T15:24:51.696Z,5.70
2022-11-10T15:27:30.969Z,5.70
2022-11-10T15:30:00.802Z,5.60
2022-11-10T15:32:34.634Z,5.60
2022-11-10T15:35:29.663Z,5.80
2022-11-10T15:38:09.796Z,5.70
2022-11-10T15:40:48.426Z,5.80
2022-11-10T15:43:24.665Z,5.70
2022-11-10T15:46:18.517Z,5.70
2022-11-10T15:48:48.753Z,5.70
2022-11-10T15:51:21.474Z,5.60
2022-11-10T15:53:53.424Z,5.50
2022-11-10T15:56:23.092Z,5.40
2022-11-10T15:58:56.587Z,5.30
2022-11-10T16:01:27.724Z,5.30
2022-11-10T16:03:55.340Z,5.30
2022-11-10T16:06:22.303Z,5.40
2022-11-10T16:08:49.248Z,5.40
2022-11-10T16:11:21.417Z,5.40
2022-11-10T16:13:50.418Z,5.50
2022-11-10T16:16:19.203Z,5.50
2022-11-10T16:18:46.884Z,5.50
2022-11-10T16:21:16.497Z,5.60
2022-11-10T16:23:44.019Z,5.60
2022-11-10T16:26:15.158Z,5.50
2022-11-10T16:28:47.740Z,5.50
2022-11-10T16:31:20.031Z,5.40
2022-11-10T16:33:48.051Z,5.40
2022-11-10T16:36:30.921Z,5.40
2022-11-10T16:38:58.331Z,5.40
2022-11-10T16:41:25.320Z,5.30
2022-11-10T16:43:52.241Z,5.40
2022-11-10T16:46:24.437Z,5.40
2022-11-10T16:48:56.583Z,5.40
2022-11-10T16:51:48.567Z,5.40
2022-11-10T16:54:16.722Z,5.40
2022-11-10T16:56:43.953Z,5.50
2022-11-10T16:59:11.875Z,5.50
2022-11-10T17:01:41.779Z,5.50
2022-11-10T17:04:11.701Z,5.60
2022-11-10T17:06:39.002Z,5.60
2022-11-10T17:09:21.541Z,5.60
2022-11-10T17:11:48.647Z,5.70
2022-11-10T17:14:16.672Z,5.70
2022-11-10T17:16:45.666Z,5.70
2022-11-10T17:19:24.335Z,5.70
2022-11-10T17:21:52.155Z,5.80
2022-11-10T17:24:19.202Z,5.80
2022-11-10T17:26:47.005Z,5.90
2022-11-10T17:29:19.262Z,5.90
2022-11-10T17:31:46.443Z,5.90
2022-11-10T17:34:13.651Z,5.90
2022-11-10T17:36:40.694Z,5.80
2022-11-10T17:39:12.669Z,5.90
2022-11-10T17:41:39.634Z,5.90
2022-11-10T17:44:14.529Z,5.80
2022-11-10T17:46:42.325Z,5.80
2022-11-10T17:49:09.915Z,5.80
2022-11-10T17:51:37.359Z,5.80
2022-11-10T17:54:05.849Z,5.80
2022-11-10T17:56:33.214Z,5.80
2022-11-10T17:59:00.176Z,5.80
2022-11-10T18:01:27.229Z,5.90
2022-11-10T18:03:54.195Z,5.90
2022-11-10T18:06:21.732Z,5.90
2022-11-10T18:08:48.772Z,6.00
2022-11-10T18:11:17.937Z,5.90
2022-11-10T18:13:45.396Z,5.90
2022-11-10T18:16:15.581Z,5.90
2022-11-10T18:18:42.678Z,5.90
2022-11-10T18:21:10.513Z,5.90
2022-11-10T18:23:37.493Z,5.90
2022-11-10T18:26:06.970Z,6.00
2022-11-10T18:28:35.594Z,6.00
2022-11-10T18:31:06.923Z,5.90
2022-11-10T18:33:33.991Z,6.00
2022-11-10T18:36:01.032Z,6.00
2022-11-10T18:38:28.961Z,6.00
2022-11-10T18:40:56.389Z,5.90
2022-11-10T18:43:23.585Z,5.90
2022-11-10T18:45:54.856Z,5.90
2022-11-10T18:48:27.248Z,6.00
2022-11-10T18:50:56.418Z,6.00
2022-11-10T18:53:23.729Z,6.10
2022-11-10T18:55:54.940Z,6.20
2022-11-10T18:58:21.895Z,6.30
2022-11-10T19:00:49.046Z,6.30
2022-11-10T19:03:16.075Z,6.40
2022-11-10T19:05:43.251Z,6.40
2022-11-10T19:08:10.899Z,6.40
2022-11-10T19:10:42.658Z,6.50
2022-11-10T19:13:09.773Z,6.50
2022-11-10T19:15:41.330Z,6.60
2022-11-10T19:18:08.353Z,6.60
2022-11-10T19:20:39.754Z,6.50
2022-11-10T19:23:06.873Z,6.50
2022-11-10T19:25:33.952Z,6.40
2022-11-10T19:28:00.933Z,6.40
2022-11-10T19:30:28.159Z,6.40
2022-11-10T19:32:55.385Z,6.40
2022-11-10T19:35:22.837Z,6.40
2022-11-10T19:37:54.081Z,6.40
2022-11-10T19:40:21.939Z,6.30
2022-11-10T19:42:49.190Z,6.30
2022-11-10T19:45:16.772Z,6.30
2022-11-10T19:47:44.009Z,6.30
2022-11-10T19:50:11.085Z,6.30
2022-11-10T19:52:38.082Z,6.20
2022-11-10T19:55:05.490Z,6.20
2022-11-10T19:57:32.568Z,6.20
2022-11-10T19:59:59.550Z,6.20
2022-11-10T20:02:26.741Z,6.20
2022-11-10T20:05:12.418Z,6.20
2022-11-10T20:07:59.127Z,6.20
2022-11-10T20:10:27.649Z,6.20
2022-11-10T20:12:54.658Z,6.20
2022-11-10T20:15:21.810Z,6.20
2022-11-10T20:17:48.843Z,6.20
2022-11-10T20:20:16.389Z,6.20
2022-11-10T20:22:43.359Z,6.20
2022-11-10T20:25:10.314Z,6.20
2022-11-10T20:27:37.629Z,6.20
2022-11-10T20:30:05.772Z,6.20
2022-11-10T20:32:32.833Z,6.30
2022-11-10T20:35:00.861Z,6.30
2022-11-10T20:37:31.431Z,6.30
2022-11-10T20:39:58.503Z,6.30
2022-11-10T20:42:25.482Z,6.30
2022-11-10T20:44:52.707Z,6.40
2022-11-10T20:47:19.772Z,6.40
2022-11-10T20:49:49.575Z,6.40
2022-11-10T20:52:16.628Z,6.40
2022-11-10T20:54:44.522Z,6.50
2022-11-10T20:57:11.759Z,6.50
2022-11-10T20:59:38.794Z,6.60
2022-11-10T21:02:06.017Z,6.60
2022-11-10T21:04:33.018Z,6.70
2022-11-10T21:07:00.051Z,6.80
2022-11-10T21:09:27.827Z,6.80
2022-11-10T21:12:14.354Z,6.80
2022-11-10T21:14:41.357Z,6.70
2022-11-10T21:17:08.345Z,6.70
2022-11-10T21:19:35.978Z,6.70
2022-11-10T21:22:03.185Z,6.70
2022-11-10T21:24:30.262Z,6.70
2022-11-10T21:26:58.137Z,6.80
2022-11-10T21:29:25.176Z,6.80
2022-11-10T21:31:52.437Z,6.90
2022-11-10T21:34:19.553Z,7.00
2022-11-10T21:36:48.506Z,7.00
2022-11-10T21:39:15.513Z,7.10
2022-11-10T21:41:42.491Z,7.00
2022-11-10T21:44:09.452Z,7.00
2022-11-10T21:46:36.414Z,7.00
2022-11-10T21:49:07.614Z,7.00
2022-11-10T21:51:35.357Z,7.00
2022-11-10T21:54:02.315Z,7.10
2022-11-10T21:56:29.241Z,7.10
2022-11-10T21:58:56.234Z,7.20
2022-11-10T22:01:23.359Z,7.20
2022-11-10T22:03:50.975Z,7.20
2022-11-10T22:06:18.815Z,7.20
2022-11-10T22:08:47.720Z,7.30
2022-11-10T22:11:38.711Z,7.40
2022-11-10T22:14:30.949Z,7.50
2022-11-10T22:17:16.539Z,7.50
2022-11-10T22:19:44.594Z,7.60
2022-11-10T22:22:14.319Z,7.80
2022-11-10T22:24:41.505Z,7.80
2022-11-10T22:27:08.656Z,8.00
2022-11-10T22:29:35.719Z,8.00
2022-11-10T22:32:03.467Z,8.00
2022-11-10T22:34:30.556Z,8.10
2022-11-10T22:36:59.563Z,8.10
2022-11-10T22:39:46.722Z,8.20
2022-11-10T22:42:32.292Z,8.20
2022-11-10T22:44:59.339Z,8.30
2022-11-10T22:47:46.249Z,8.30
2022-11-10T22:50:13.263Z,8.30
2022-11-10T22:52:40.643Z,8.30
2022-11-10T22:55:07.902Z,8.30
2022-11-10T22:57:34.866Z,8.30
2022-11-10T23:00:01.834Z,8.30
2022-11-10T23:02:28.778Z,8.30
2022-11-10T23:04:55.724Z,8.30
2022-11-10T23:07:22.895Z,8.40
2022-11-10T23:09:49.854Z,8.40
2022-11-10T23:12:17.104Z,8.50
2022-11-10T23:14:44.084Z,8.60
2022-11-10T23:17:11.010Z,8.70
2022-11-10T23:19:37.941Z,8.70
2022-11-10T23:22:04.929Z,8.80
2022-11-10T23:24:31.880Z,8.70
2022-11-10T23:26:58.909Z,8.70
2022-11-10T23:29:26.086Z,8.70
2022-11-10T23:31:53.124Z,8.70
2022-11-10T23:34:20.038Z,8.80
2022-11-10T23:36:47.024Z,8.80
2022-11-10T23:39:14.152Z,8.90
2022-11-10T23:41:41.114Z,8.90
2022-11-10T23:44:08.268Z,8.90
2022-11-10T23:46:35.408Z,8.90
2022-11-10T23:49:02.362Z,9.00
2022-11-10T23:51:29.304Z,9.00
2022-11-10T23:53:56.261Z,9.00
2022-11-10T23:56:23.218Z,9.00
2022-11-10T23:58:50.183Z,9.10
